sensor_id;sensor_type;location;lat;lon;timestamp;P1;durP1;ratioP1;P2;durP2;ratioP2
74799;SDS011;63326;45.088;7.658;2023-03-01T00:01:02;8.30;;;4.20;;
74799;SDS011;63326;45.088;7.658;2023-03-01T00:03:30;7.63;;;4.00;;
74799;SDS011;63326;45.088;7.658;2023-03-01T00:05:58;8.18;;;4.78;;
74799;SDS011;63326;45.088;7.658;2023-03-01T00:08:25;10.23;;;4.65;;
74799;SDS011;63326;45.088;7.658;2023-03-01T00:13:31;12.25;;;4.47;;
74799;SDS011;63326;45.088;7.658;2023-03-01T00:15:58;7.78;;;4.22;;
74799;SDS011;63326;45.088;7.658;2023-03-01T00:18:25;6.97;;;4.53;;
74799;SDS011;63326;45.088;7.658;2023-03-01T00:20:55;9.73;;;6.38;;
74799;SDS011;63326;45.088;7.658;2023-03-01T00:23:22;7.95;;;4.63;;
74799;SDS011;63326;45.088;7.658;2023-03-01T00:25:49;5.45;;;3.17;;
74799;SDS011;63326;45.088;7.658;2023-03-01T00:28:16;10.23;;;4.63;;
74799;SDS011;63326;45.088;7.658;2023-03-01T00:30:43;10.20;;;5.60;;
74799;SDS011;63326;45.088;7.658;2023-03-01T00:33:10;11.05;;;5.47;;
74799;SDS011;63326;45.088;7.658;2023-03-01T00:35:37;10.18;;;4.10;;
74799;SDS011;63326;45.088;7.658;2023-03-01T00:38:04;8.70;;;4.88;;
74799;SDS011;63326;45.088;7.658;2023-03-01T00:40:32;8.70;;;4.80;;
74799;SDS011;63326;45.088;7.658;2023-03-01T00:43:00;6.05;;;4.30;;
74799;SDS011;63326;45.088;7.658;2023-03-01T00:45:27;6.47;;;3.72;;
74799;SDS011;63326;45.088;7.658;2023-03-01T00:47:54;9.50;;;5.57;;
74799;SDS011;63326;45.088;7.658;2023-03-01T00:50:21;13.25;;;5.32;;
74799;SDS011;63326;45.088;7.658;2023-03-01T00:52:50;8.35;;;5.72;;
74799;SDS011;63326;45.088;7.658;2023-03-01T00:55:19;9.23;;;5.78;;
74799;SDS011;63326;45.088;7.658;2023-03-01T00:57:45;9.80;;;4.75;;
74799;SDS011;63326;45.088;7.658;2023-03-01T01:00:13;7.07;;;5.65;;
74799;SDS011;63326;45.088;7.658;2023-03-01T01:02:40;7.30;;;4.40;;
74799;SDS011;63326;45.088;7.658;2023-03-01T01:05:07;9.63;;;5.03;;
74799;SDS011;63326;45.088;7.658;2023-03-01T01:07:33;6.68;;;5.45;;
74799;SDS011;63326;45.088;7.658;2023-03-01T01:10:00;7.40;;;6.22;;
74799;SDS011;63326;45.088;7.658;2023-03-01T01:12:27;10.43;;;5.00;;
74799;SDS011;63326;45.088;7.658;2023-03-01T01:14:54;9.18;;;3.83;;
74799;SDS011;63326;45.088;7.658;2023-03-01T01:17:22;7.55;;;5.85;;
74799;SDS011;63326;45.088;7.658;2023-03-01T01:19:49;22.88;;;7.32;;
74799;SDS011;63326;45.088;7.658;2023-03-01T01:22:16;11.50;;;6.60;;
74799;SDS011;63326;45.088;7.658;2023-03-01T01:24:42;9.40;;;6.38;;
74799;SDS011;63326;45.088;7.658;2023-03-01T01:27:09;7.22;;;5.68;;
74799;SDS011;63326;45.088;7.658;2023-03-01T01:29:35;10.20;;;6.45;;
74799;SDS011;63326;45.088;7.658;2023-03-01T01:32:02;10.00;;;5.15;;
74799;SDS011;63326;45.088;7.658;2023-03-01T01:34:29;8.02;;;5.80;;
74799;SDS011;63326;45.088;7.658;2023-03-01T01:36:56;10.80;;;7.47;;
74799;SDS011;63326;45.088;7.658;2023-03-01T01:39:23;9.75;;;5.47;;
74799;SDS011;63326;45.088;7.658;2023-03-01T01:41:50;6.75;;;5.85;;
74799;SDS011;63326;45.088;7.658;2023-03-01T01:44:27;7.00;;;5.50;;
74799;SDS011;63326;45.088;7.658;2023-03-01T01:52:07;8.30;;;5.82;;
74799;SDS011;63326;45.088;7.658;2023-03-01T01:54:45;6.90;;;5.43;;
74799;SDS011;63326;45.088;7.658;2023-03-01T01:57:17;7.28;;;5.97;;
74799;SDS011;63326;45.088;7.658;2023-03-01T01:59:49;8.70;;;5.55;;
74799;SDS011;63326;45.088;7.658;2023-03-01T02:02:19;8.63;;;6.45;;
74799;SDS011;63326;45.088;7.658;2023-03-01T02:04:47;12.15;;;5.75;;
74799;SDS011;63326;45.088;7.658;2023-03-01T02:07:20;11.60;;;5.53;;
74799;SDS011;63326;45.088;7.658;2023-03-01T02:09:49;6.78;;;4.47;;
74799;SDS011;63326;45.088;7.658;2023-03-01T02:12:23;12.05;;;7.50;;
74799;SDS011;63326;45.088;7.658;2023-03-01T02:14:50;6.10;;;4.28;;
74799;SDS011;63326;45.088;7.658;2023-03-01T02:17:17;7.45;;;5.15;;
74799;SDS011;63326;45.088;7.658;2023-03-01T02:22:28;14.30;;;7.13;;
74799;SDS011;63326;45.088;7.658;2023-03-01T02:27:51;10.10;;;6.45;;
74799;SDS011;63326;45.088;7.658;2023-03-01T02:30:20;8.60;;;5.60;;
74799;SDS011;63326;45.088;7.658;2023-03-01T02:32:48;7.72;;;4.82;;
74799;SDS011;63326;45.088;7.658;2023-03-01T02:35:16;9.80;;;5.55;;
74799;SDS011;63326;45.088;7.658;2023-03-01T02:37:45;7.18;;;4.53;;
74799;SDS011;63326;45.088;7.658;2023-03-01T02:42:49;8.02;;;5.47;;
74799;SDS011;63326;45.088;7.658;2023-03-01T02:45:20;9.95;;;4.13;;
74799;SDS011;63326;45.088;7.658;2023-03-01T02:47:47;8.45;;;4.95;;
74799;SDS011;63326;45.088;7.658;2023-03-01T02:50:16;7.82;;;4.95;;
74799;SDS011;63326;45.088;7.658;2023-03-01T02:56:02;7.65;;;5.15;;
74799;SDS011;63326;45.088;7.658;2023-03-01T02:58:28;10.05;;;4.82;;
74799;SDS011;63326;45.088;7.658;2023-03-01T03:00:55;8.60;;;4.93;;
74799;SDS011;63326;45.088;7.658;2023-03-01T03:03:23;8.82;;;4.85;;
74799;SDS011;63326;45.088;7.658;2023-03-01T03:05:49;10.40;;;5.88;;
74799;SDS011;63326;45.088;7.658;2023-03-01T03:08:16;4.82;;;3.70;;
74799;SDS011;63326;45.088;7.658;2023-03-01T03:10:50;8.10;;;5.18;;
74799;SDS011;63326;45.088;7.658;2023-03-01T03:13:17;6.55;;;4.72;;
74799;SDS011;63326;45.088;7.658;2023-03-01T03:15:45;8.10;;;6.05;;
74799;SDS011;63326;45.088;7.658;2023-03-01T03:18:13;11.07;;;5.03;;
74799;SDS011;63326;45.088;7.658;2023-03-01T03:20:41;11.85;;;5.40;;
74799;SDS011;63326;45.088;7.658;2023-03-01T03:23:10;10.50;;;5.63;;
74799;SDS011;63326;45.088;7.658;2023-03-01T03:25:36;12.07;;;5.80;;
74799;SDS011;63326;45.088;7.658;2023-03-01T03:28:04;10.82;;;5.57;;
74799;SDS011;63326;45.088;7.658;2023-03-01T03:30:37;9.30;;;4.28;;
74799;SDS011;63326;45.088;7.658;2023-03-01T03:33:06;6.57;;;4.97;;
74799;SDS011;63326;45.088;7.658;2023-03-01T03:35:34;8.48;;;6.07;;
74799;SDS011;63326;45.088;7.658;2023-03-01T03:38:06;7.32;;;4.57;;
74799;SDS011;63326;45.088;7.658;2023-03-01T03:40:48;12.43;;;6.63;;
74799;SDS011;63326;45.088;7.658;2023-03-01T03:45:49;11.07;;;6.30;;
74799;SDS011;63326;45.088;7.658;2023-03-01T03:48:17;8.07;;;5.85;;
74799;SDS011;63326;45.088;7.658;2023-03-01T03:50:49;8.90;;;5.72;;
74799;SDS011;63326;45.088;7.658;2023-03-01T03:53:17;10.23;;;6.72;;
74799;SDS011;63326;45.088;7.658;2023-03-01T03:55:45;10.60;;;5.35;;
74799;SDS011;63326;45.088;7.658;2023-03-01T03:58:15;18.27;;;5.85;;
74799;SDS011;63326;45.088;7.658;2023-03-01T04:00:46;8.05;;;5.00;;
74799;SDS011;63326;45.088;7.658;2023-03-01T04:03:15;5.22;;;4.65;;
74799;SDS011;63326;45.088;7.658;2023-03-01T04:05:44;7.90;;;6.22;;
74799;SDS011;63326;45.088;7.658;2023-03-01T04:08:12;6.55;;;4.80;;
74799;SDS011;63326;45.088;7.658;2023-03-01T04:10:40;7.55;;;4.95;;
74799;SDS011;63326;45.088;7.658;2023-03-01T04:13:11;10.40;;;4.72;;
74799;SDS011;63326;45.088;7.658;2023-03-01T04:15:39;5.13;;;4.05;;
74799;SDS011;63326;45.088;7.658;2023-03-01T04:18:07;11.52;;;6.05;;
74799;SDS011;63326;45.088;7.658;2023-03-01T04:20:38;9.70;;;4.50;;
74799;SDS011;63326;45.088;7.658;2023-03-01T04:23:09;10.38;;;6.03;;
74799;SDS011;63326;45.088;7.658;2023-03-01T04:25:40;8.52;;;5.82;;
74799;SDS011;63326;45.088;7.658;2023-03-01T04:28:15;6.45;;;3.90;;
74799;SDS011;63326;45.088;7.658;2023-03-01T04:30:42;8.70;;;4.68;;
74799;SDS011;63326;45.088;7.658;2023-03-01T04:33:09;7.70;;;5.25;;
74799;SDS011;63326;45.088;7.658;2023-03-01T04:35:37;9.68;;;5.25;;
74799;SDS011;63326;45.088;7.658;2023-03-01T04:38:05;8.90;;;5.70;;
74799;SDS011;63326;45.088;7.658;2023-03-01T04:40:32;9.05;;;6.00;;
74799;SDS011;63326;45.088;7.658;2023-03-01T04:42:59;7.18;;;4.45;;
74799;SDS011;63326;45.088;7.658;2023-03-01T04:45:26;8.80;;;4.82;;
74799;SDS011;63326;45.088;7.658;2023-03-01T04:47:54;8.23;;;5.50;;
74799;SDS011;63326;45.088;7.658;2023-03-01T04:50:21;6.00;;;4.50;;
74799;SDS011;63326;45.088;7.658;2023-03-01T04:52:49;8.20;;;5.72;;
74799;SDS011;63326;45.088;7.658;2023-03-01T04:55:17;10.38;;;5.72;;
74799;SDS011;63326;45.088;7.658;2023-03-01T04:57:45;6.57;;;5.45;;
74799;SDS011;63326;45.088;7.658;2023-03-01T05:02:53;6.70;;;3.97;;
74799;SDS011;63326;45.088;7.658;2023-03-01T05:05:27;5.65;;;4.85;;
74799;SDS011;63326;45.088;7.658;2023-03-01T05:07:56;9.85;;;6.40;;
74799;SDS011;63326;45.088;7.658;2023-03-01T05:10:25;16.67;;;6.47;;
74799;SDS011;63326;45.088;7.658;2023-03-01T05:12:55;8.63;;;5.32;;
74799;SDS011;63326;45.088;7.658;2023-03-01T05:15:23;11.68;;;4.82;;
74799;SDS011;63326;45.088;7.658;2023-03-01T05:17:52;6.68;;;5.38;;
74799;SDS011;63326;45.088;7.658;2023-03-01T05:20:21;7.72;;;6.15;;
74799;SDS011;63326;45.088;7.658;2023-03-01T05:22:51;11.02;;;5.30;;
74799;SDS011;63326;45.088;7.658;2023-03-01T05:25:20;8.77;;;5.00;;
74799;SDS011;63326;45.088;7.658;2023-03-01T05:27:47;7.47;;;4.75;;
74799;SDS011;63326;45.088;7.658;2023-03-01T05:30:14;6.68;;;4.30;;
74799;SDS011;63326;45.088;7.658;2023-03-01T05:32:50;9.15;;;3.60;;
74799;SDS011;63326;45.088;7.658;2023-03-01T05:35:22;7.53;;;3.92;;
74799;SDS011;63326;45.088;7.658;2023-03-01T05:37:50;8.30;;;4.78;;
74799;SDS011;63326;45.088;7.658;2023-03-01T05:40:21;10.27;;;6.22;;
74799;SDS011;63326;45.088;7.658;2023-03-01T05:42:52;7.90;;;5.47;;
74799;SDS011;63326;45.088;7.658;2023-03-01T05:45:20;8.52;;;5.55;;
74799;SDS011;63326;45.088;7.658;2023-03-01T05:47:49;4.85;;;3.58;;
74799;SDS011;63326;45.088;7.658;2023-03-01T05:50:24;8.88;;;6.28;;
74799;SDS011;63326;45.088;7.658;2023-03-01T05:52:56;6.60;;;4.97;;
74799;SDS011;63326;45.088;7.658;2023-03-01T05:55:25;7.75;;;4.47;;
74799;SDS011;63326;45.088;7.658;2023-03-01T05:57:54;7.75;;;4.28;;
74799;SDS011;63326;45.088;7.658;2023-03-01T06:00:21;7.93;;;4.85;;
74799;SDS011;63326;45.088;7.658;2023-03-01T06:02:49;7.57;;;5.60;;
74799;SDS011;63326;45.088;7.658;2023-03-01T06:05:18;8.55;;;5.07;;
74799;SDS011;63326;45.088;7.658;2023-03-01T06:07:44;8.30;;;6.35;;
74799;SDS011;63326;45.088;7.658;2023-03-01T06:10:12;6.32;;;5.22;;
74799;SDS011;63326;45.088;7.658;2023-03-01T06:12:40;8.95;;;4.95;;
74799;SDS011;63326;45.088;7.658;2023-03-01T06:15:10;5.63;;;3.78;;
74799;SDS011;63326;45.088;7.658;2023-03-01T06:17:39;19.17;;;6.90;;
74799;SDS011;63326;45.088;7.658;2023-03-01T06:20:12;10.13;;;6.72;;
74799;SDS011;63326;45.088;7.658;2023-03-01T06:22:43;8.70;;;5.63;;
74799;SDS011;63326;45.088;7.658;2023-03-01T06:25:11;15.13;;;6.88;;
74799;SDS011;63326;45.088;7.658;2023-03-01T06:27:41;7.13;;;4.43;;
74799;SDS011;63326;45.088;7.658;2023-03-01T06:30:08;6.32;;;4.85;;
74799;SDS011;63326;45.088;7.658;2023-03-01T06:32:37;7.80;;;5.15;;
74799;SDS011;63326;45.088;7.658;2023-03-01T06:35:09;12.20;;;5.47;;
74799;SDS011;63326;45.088;7.658;2023-03-01T06:37:37;10.07;;;6.00;;
74799;SDS011;63326;45.088;7.658;2023-03-01T06:40:04;7.22;;;3.75;;
74799;SDS011;63326;45.088;7.658;2023-03-01T06:42:35;11.60;;;5.70;;
74799;SDS011;63326;45.088;7.658;2023-03-01T06:45:02;10.15;;;6.80;;
74799;SDS011;63326;45.088;7.658;2023-03-01T06:47:30;9.82;;;6.55;;
74799;SDS011;63326;45.088;7.658;2023-03-01T06:49:59;7.75;;;5.57;;
74799;SDS011;63326;45.088;7.658;2023-03-01T06:52:27;8.20;;;5.53;;
74799;SDS011;63326;45.088;7.658;2023-03-01T06:54:53;10.80;;;5.82;;
74799;SDS011;63326;45.088;7.658;2023-03-01T06:57:20;9.38;;;7.28;;
74799;SDS011;63326;45.088;7.658;2023-03-01T06:59:47;8.80;;;4.95;;
74799;SDS011;63326;45.088;7.658;2023-03-01T07:02:14;7.35;;;5.75;;
74799;SDS011;63326;45.088;7.658;2023-03-01T07:04:42;9.73;;;7.32;;
74799;SDS011;63326;45.088;7.658;2023-03-01T07:07:09;13.30;;;6.57;;
74799;SDS011;63326;45.088;7.658;2023-03-01T07:09:36;13.95;;;7.75;;
74799;SDS011;63326;45.088;7.658;2023-03-01T07:12:03;7.55;;;5.00;;
74799;SDS011;63326;45.088;7.658;2023-03-01T07:14:29;9.38;;;6.70;;
74799;SDS011;63326;45.088;7.658;2023-03-01T07:16:56;12.23;;;8.10;;
74799;SDS011;63326;45.088;7.658;2023-03-01T07:19:23;18.52;;;7.63;;
74799;SDS011;63326;45.088;7.658;2023-03-01T07:21:50;13.95;;;6.20;;
74799;SDS011;63326;45.088;7.658;2023-03-01T07:24:16;9.52;;;6.13;;
74799;SDS011;63326;45.088;7.658;2023-03-01T07:26:43;9.80;;;6.28;;
74799;SDS011;63326;45.088;7.658;2023-03-01T07:29:10;11.40;;;7.10;;
74799;SDS011;63326;45.088;7.658;2023-03-01T07:31:37;8.32;;;5.75;;
74799;SDS011;63326;45.088;7.658;2023-03-01T07:34:04;8.02;;;5.72;;
74799;SDS011;63326;45.088;7.658;2023-03-01T07:36:30;7.43;;;6.55;;
74799;SDS011;63326;45.088;7.658;2023-03-01T07:38:57;8.65;;;6.65;;
74799;SDS011;63326;45.088;7.658;2023-03-01T07:41:24;8.18;;;5.43;;
74799;SDS011;63326;45.088;7.658;2023-03-01T07:43:51;5.20;;;4.00;;
74799;SDS011;63326;45.088;7.658;2023-03-01T07:46:18;8.65;;;6.38;;
74799;SDS011;63326;45.088;7.658;2023-03-01T07:48:45;8.52;;;6.50;;
74799;SDS011;63326;45.088;7.658;2023-03-01T07:51:12;5.88;;;4.07;;
74799;SDS011;63326;45.088;7.658;2023-03-01T07:53:39;6.00;;;3.90;;
74799;SDS011;63326;45.088;7.658;2023-03-01T07:58:34;11.35;;;7.00;;
74799;SDS011;63326;45.088;7.658;2023-03-01T08:01:02;7.18;;;4.50;;
74799;SDS011;63326;45.088;7.658;2023-03-01T08:03:30;5.88;;;5.28;;
74799;SDS011;63326;45.088;7.658;2023-03-01T08:06:00;7.18;;;5.13;;
74799;SDS011;63326;45.088;7.658;2023-03-01T08:08:28;9.85;;;6.30;;
74799;SDS011;63326;45.088;7.658;2023-03-01T08:10:58;10.38;;;6.13;;
74799;SDS011;63326;45.088;7.658;2023-03-01T08:13:26;7.20;;;5.47;;
74799;SDS011;63326;45.088;7.658;2023-03-01T08:15:53;8.98;;;3.78;;
74799;SDS011;63326;45.088;7.658;2023-03-01T08:18:20;8.27;;;4.00;;
74799;SDS011;63326;45.088;7.658;2023-03-01T08:20:47;8.02;;;4.97;;
74799;SDS011;63326;45.088;7.658;2023-03-01T08:23:14;7.88;;;5.95;;
74799;SDS011;63326;45.088;7.658;2023-03-01T08:25:40;11.52;;;6.43;;
74799;SDS011;63326;45.088;7.658;2023-03-01T08:28:07;8.48;;;5.22;;
74799;SDS011;63326;45.088;7.658;2023-03-01T08:30:34;11.48;;;6.93;;
74799;SDS011;63326;45.088;7.658;2023-03-01T08:33:01;10.38;;;6.40;;
74799;SDS011;63326;45.088;7.658;2023-03-01T08:35:27;8.85;;;4.68;;
74799;SDS011;63326;45.088;7.658;2023-03-01T08:37:54;10.43;;;6.78;;
74799;SDS011;63326;45.088;7.658;2023-03-01T08:40:21;7.78;;;5.22;;
74799;SDS011;63326;45.088;7.658;2023-03-01T08:42:48;14.63;;;6.85;;
74799;SDS011;63326;45.088;7.658;2023-03-01T08:45:14;8.82;;;6.57;;
74799;SDS011;63326;45.088;7.658;2023-03-01T08:47:44;11.15;;;6.88;;
74799;SDS011;63326;45.088;7.658;2023-03-01T08:50:11;10.15;;;5.80;;
74799;SDS011;63326;45.088;7.658;2023-03-01T08:52:38;9.07;;;5.35;;
74799;SDS011;63326;45.088;7.658;2023-03-01T08:55:05;8.55;;;5.28;;
74799;SDS011;63326;45.088;7.658;2023-03-01T08:57:32;11.10;;;7.43;;
74799;SDS011;63326;45.088;7.658;2023-03-01T08:59:59;15.57;;;6.43;;
74799;SDS011;63326;45.088;7.658;2023-03-01T09:02:25;10.65;;;6.75;;
74799;SDS011;63326;45.088;7.658;2023-03-01T09:04:52;7.22;;;4.85;;
74799;SDS011;63326;45.088;7.658;2023-03-01T09:07:19;12.75;;;5.80;;
74799;SDS011;63326;45.088;7.658;2023-03-01T09:09:45;10.00;;;6.43;;
74799;SDS011;63326;45.088;7.658;2023-03-01T09:12:12;13.02;;;6.95;;
74799;SDS011;63326;45.088;7.658;2023-03-01T09:14:39;10.63;;;7.43;;
74799;SDS011;63326;45.088;7.658;2023-03-01T09:17:07;9.45;;;7.75;;
74799;SDS011;63326;45.088;7.658;2023-03-01T09:19:34;13.77;;;8.18;;
74799;SDS011;63326;45.088;7.658;2023-03-01T09:22:02;14.05;;;7.82;;
74799;SDS011;63326;45.088;7.658;2023-03-01T09:24:29;15.50;;;8.15;;
74799;SDS011;63326;45.088;7.658;2023-03-01T09:26:56;13.27;;;7.20;;
74799;SDS011;63326;45.088;7.658;2023-03-01T09:29:23;14.00;;;7.38;;
74799;SDS011;63326;45.088;7.658;2023-03-01T09:31:50;22.73;;;9.70;;
74799;SDS011;63326;45.088;7.658;2023-03-01T09:34:16;15.90;;;8.35;;
74799;SDS011;63326;45.088;7.658;2023-03-01T09:36:49;12.13;;;7.80;;
74799;SDS011;63326;45.088;7.658;2023-03-01T09:39:16;13.43;;;8.15;;
74799;SDS011;63326;45.088;7.658;2023-03-01T09:41:49;16.42;;;9.65;;
74799;SDS011;63326;45.088;7.658;2023-03-01T09:44:40;14.98;;;8.10;;
74799;SDS011;63326;45.088;7.658;2023-03-01T09:47:21;15.23;;;9.93;;
74799;SDS011;63326;45.088;7.658;2023-03-01T09:50:02;15.38;;;7.28;;
74799;SDS011;63326;45.088;7.658;2023-03-01T09:52:38;15.25;;;6.30;;
74799;SDS011;63326;45.088;7.658;2023-03-01T09:55:15;14.57;;;8.93;;
74799;SDS011;63326;45.088;7.658;2023-03-01T10:01:15;13.38;;;8.80;;
74799;SDS011;63326;45.088;7.658;2023-03-01T10:09:37;19.30;;;7.63;;
74799;SDS011;63326;45.088;7.658;2023-03-01T10:12:09;22.42;;;9.88;;
74799;SDS011;63326;45.088;7.658;2023-03-01T10:14:49;18.38;;;9.40;;
74799;SDS011;63326;45.088;7.658;2023-03-01T10:20:19;15.15;;;7.15;;
74799;SDS011;63326;45.088;7.658;2023-03-01T10:22:51;11.68;;;8.13;;
74799;SDS011;63326;45.088;7.658;2023-03-01T10:28:16;16.48;;;8.73;;
74799;SDS011;63326;45.088;7.658;2023-03-01T10:30:46;13.40;;;7.20;;
74799;SDS011;63326;45.088;7.658;2023-03-01T10:33:17;13.68;;;8.27;;
74799;SDS011;63326;45.088;7.658;2023-03-01T10:35:45;12.73;;;7.35;;
74799;SDS011;63326;45.088;7.658;2023-03-01T10:38:13;15.65;;;7.55;;
74799;SDS011;63326;45.088;7.658;2023-03-01T10:40:59;15.57;;;7.72;;
74799;SDS011;63326;45.088;7.658;2023-03-01T10:43:46;13.02;;;7.88;;
74799;SDS011;63326;45.088;7.658;2023-03-01T10:46:25;12.10;;;6.13;;
74799;SDS011;63326;45.088;7.658;2023-03-01T10:49:16;13.45;;;6.97;;
74799;SDS011;63326;45.088;7.658;2023-03-01T10:51:48;17.35;;;8.60;;
74799;SDS011;63326;45.088;7.658;2023-03-01T10:54:27;14.50;;;7.18;;
74799;SDS011;63326;45.088;7.658;2023-03-01T10:57:00;18.55;;;10.18;;
74799;SDS011;63326;45.088;7.658;2023-03-01T10:59:30;19.48;;;10.88;;
74799;SDS011;63326;45.088;7.658;2023-03-01T11:04:57;16.52;;;8.98;;
74799;SDS011;63326;45.088;7.658;2023-03-01T11:07:53;14.32;;;8.20;;
74799;SDS011;63326;45.088;7.658;2023-03-01T11:10:28;17.17;;;9.48;;
74799;SDS011;63326;45.088;7.658;2023-03-01T11:13:16;19.08;;;9.88;;
74799;SDS011;63326;45.088;7.658;2023-03-01T11:16:06;18.95;;;11.00;;
74799;SDS011;63326;45.088;7.658;2023-03-01T11:18:36;15.40;;;8.65;;
74799;SDS011;63326;45.088;7.658;2023-03-01T11:21:14;23.10;;;12.27;;
74799;SDS011;63326;45.088;7.658;2023-03-01T11:23:42;17.88;;;8.38;;
74799;SDS011;63326;45.088;7.658;2023-03-01T11:26:12;18.73;;;9.00;;
74799;SDS011;63326;45.088;7.658;2023-03-01T11:28:41;16.42;;;8.38;;
74799;SDS011;63326;45.088;7.658;2023-03-01T11:31:11;17.17;;;9.65;;
74799;SDS011;63326;45.088;7.658;2023-03-01T11:33:59;19.40;;;8.85;;
74799;SDS011;63326;45.088;7.658;2023-03-01T11:41:44;15.00;;;9.57;;
74799;SDS011;63326;45.088;7.658;2023-03-01T11:44:23;17.70;;;9.32;;
74799;SDS011;63326;45.088;7.658;2023-03-01T11:47:03;13.43;;;8.05;;
74799;SDS011;63326;45.088;7.658;2023-03-01T12:01:16;13.93;;;7.15;;
74799;SDS011;63326;45.088;7.658;2023-03-01T12:06:49;11.32;;;6.55;;
74799;SDS011;63326;45.088;7.658;2023-03-01T12:15:08;16.08;;;8.50;;
74799;SDS011;63326;45.088;7.658;2023-03-01T12:26:16;12.52;;;6.68;;
74799;SDS011;63326;45.088;7.658;2023-03-01T12:34:55;12.05;;;7.10;;
74799;SDS011;63326;45.088;7.658;2023-03-01T12:49:15;10.02;;;5.55;;
74799;SDS011;63326;45.088;7.658;2023-03-01T12:54:54;12.20;;;6.82;;
74799;SDS011;63326;45.088;7.658;2023-03-01T12:57:28;14.43;;;5.95;;
74799;SDS011;63326;45.088;7.658;2023-03-01T13:06:11;11.80;;;5.85;;
74799;SDS011;63326;45.088;7.658;2023-03-01T13:11:35;13.02;;;6.00;;
74799;SDS011;63326;45.088;7.658;2023-03-01T13:16:46;10.48;;;7.40;;
74799;SDS011;63326;45.088;7.658;2023-03-01T13:19:16;13.55;;;6.22;;
74799;SDS011;63326;45.088;7.658;2023-03-01T13:21:44;11.63;;;6.63;;
74799;SDS011;63326;45.088;7.658;2023-03-01T13:24:28;10.48;;;6.45;;
74799;SDS011;63326;45.088;7.658;2023-03-01T13:29:56;13.70;;;7.53;;
74799;SDS011;63326;45.088;7.658;2023-03-01T13:32:33;12.40;;;6.20;;
74799;SDS011;63326;45.088;7.658;2023-03-01T13:37:37;11.10;;;5.90;;
74799;SDS011;63326;45.088;7.658;2023-03-01T13:40:05;9.85;;;5.40;;
74799;SDS011;63326;45.088;7.658;2023-03-01T13:42:51;13.15;;;7.32;;
74799;SDS011;63326;45.088;7.658;2023-03-01T13:48:09;13.10;;;6.63;;
74799;SDS011;63326;45.088;7.658;2023-03-01T13:50:43;14.15;;;6.75;;
74799;SDS011;63326;45.088;7.658;2023-03-01T13:53:16;13.10;;;5.28;;
74799;SDS011;63326;45.088;7.658;2023-03-01T13:55:46;9.35;;;5.93;;
74799;SDS011;63326;45.088;7.658;2023-03-01T13:58:23;8.20;;;5.55;;
74799;SDS011;63326;45.088;7.658;2023-03-01T14:01:02;12.05;;;6.05;;
74799;SDS011;63326;45.088;7.658;2023-03-01T14:03:31;9.68;;;5.75;;
74799;SDS011;63326;45.088;7.658;2023-03-01T14:06:01;13.88;;;7.18;;
74799;SDS011;63326;45.088;7.658;2023-03-01T14:08:46;9.00;;;5.03;;
74799;SDS011;63326;45.088;7.658;2023-03-01T14:14:43;26.23;;;7.18;;
74799;SDS011;63326;45.088;7.658;2023-03-01T14:17:26;10.63;;;4.63;;
74799;SDS011;63326;45.088;7.658;2023-03-01T14:19:55;10.80;;;5.70;;
74799;SDS011;63326;45.088;7.658;2023-03-01T14:22:28;15.27;;;7.30;;
74799;SDS011;63326;45.088;7.658;2023-03-01T14:24:59;8.55;;;5.15;;
74799;SDS011;63326;45.088;7.658;2023-03-01T14:27:33;17.25;;;8.23;;
74799;SDS011;63326;45.088;7.658;2023-03-01T14:30:25;13.05;;;6.90;;
74799;SDS011;63326;45.088;7.658;2023-03-01T14:32:58;8.70;;;5.30;;
74799;SDS011;63326;45.088;7.658;2023-03-01T14:35:30;12.13;;;7.18;;
74799;SDS011;63326;45.088;7.658;2023-03-01T14:37:58;9.55;;;5.15;;
74799;SDS011;63326;45.088;7.658;2023-03-01T14:42:55;11.20;;;6.75;;
74799;SDS011;63326;45.088;7.658;2023-03-01T14:45:25;12.73;;;5.80;;
74799;SDS011;63326;45.088;7.658;2023-03-01T14:47:53;13.45;;;6.88;;
74799;SDS011;63326;45.088;7.658;2023-03-01T14:52:51;12.23;;;7.97;;
74799;SDS011;63326;45.088;7.658;2023-03-01T14:55:34;13.48;;;7.32;;
74799;SDS011;63326;45.088;7.658;2023-03-01T14:58:03;15.18;;;7.53;;
74799;SDS011;63326;45.088;7.658;2023-03-01T15:00:32;15.00;;;7.35;;
74799;SDS011;63326;45.088;7.658;2023-03-01T15:03:46;12.65;;;6.75;;
74799;SDS011;63326;45.088;7.658;2023-03-01T15:06:04;13.10;;;5.78;;
74799;SDS011;63326;45.088;7.658;2023-03-01T15:08:32;12.40;;;5.00;;
74799;SDS011;63326;45.088;7.658;2023-03-01T15:11:04;9.73;;;6.53;;
74799;SDS011;63326;45.088;7.658;2023-03-01T15:13:51;12.27;;;6.93;;
74799;SDS011;63326;45.088;7.658;2023-03-01T15:16:19;12.82;;;5.38;;
74799;SDS011;63326;45.088;7.658;2023-03-01T15:19:04;12.27;;;6.38;;
74799;SDS011;63326;45.088;7.658;2023-03-01T15:21:33;9.68;;;4.47;;
74799;SDS011;63326;45.088;7.658;2023-03-01T15:26:52;14.00;;;5.65;;
74799;SDS011;63326;45.088;7.658;2023-03-01T15:29:25;8.63;;;5.35;;
74799;SDS011;63326;45.088;7.658;2023-03-01T15:31:57;9.77;;;5.53;;
74799;SDS011;63326;45.088;7.658;2023-03-01T15:34:28;12.18;;;6.10;;
74799;SDS011;63326;45.088;7.658;2023-03-01T15:36:56;11.48;;;6.22;;
74799;SDS011;63326;45.088;7.658;2023-03-01T15:39:37;13.05;;;6.05;;
74799;SDS011;63326;45.088;7.658;2023-03-01T15:47:39;9.80;;;5.47;;
74799;SDS011;63326;45.088;7.658;2023-03-01T15:53:10;9.05;;;4.30;;
74799;SDS011;63326;45.088;7.658;2023-03-01T15:55:40;11.13;;;5.43;;
74799;SDS011;63326;45.088;7.658;2023-03-01T15:58:15;13.05;;;6.88;;
74799;SDS011;63326;45.088;7.658;2023-03-01T16:00:44;13.77;;;7.43;;
74799;SDS011;63326;45.088;7.658;2023-03-01T16:03:26;10.95;;;5.60;;
74799;SDS011;63326;45.088;7.658;2023-03-01T16:05:54;11.65;;;7.55;;
74799;SDS011;63326;45.088;7.658;2023-03-01T16:08:21;8.25;;;5.20;;
74799;SDS011;63326;45.088;7.658;2023-03-01T16:10:48;9.85;;;5.60;;
74799;SDS011;63326;45.088;7.658;2023-03-01T16:13:17;11.38;;;6.43;;
74799;SDS011;63326;45.088;7.658;2023-03-01T16:15:44;10.95;;;6.15;;
74799;SDS011;63326;45.088;7.658;2023-03-01T16:18:10;16.30;;;7.63;;
74799;SDS011;63326;45.088;7.658;2023-03-01T16:20:38;15.70;;;9.50;;
74799;SDS011;63326;45.088;7.658;2023-03-01T16:23:07;11.10;;;7.18;;
74799;SDS011;63326;45.088;7.658;2023-03-01T16:25:34;11.73;;;7.05;;
74799;SDS011;63326;45.088;7.658;2023-03-01T16:28:02;10.75;;;6.15;;
74799;SDS011;63326;45.088;7.658;2023-03-01T16:30:34;13.20;;;5.43;;
74799;SDS011;63326;45.088;7.658;2023-03-01T16:33:02;12.40;;;6.43;;
74799;SDS011;63326;45.088;7.658;2023-03-01T16:35:51;13.85;;;9.48;;
74799;SDS011;63326;45.088;7.658;2023-03-01T16:38:18;12.27;;;6.75;;
74799;SDS011;63326;45.088;7.658;2023-03-01T16:40:48;11.48;;;6.55;;
74799;SDS011;63326;45.088;7.658;2023-03-01T16:43:16;11.13;;;6.55;;
74799;SDS011;63326;45.088;7.658;2023-03-01T16:45:42;10.93;;;5.35;;
74799;SDS011;63326;45.088;7.658;2023-03-01T16:48:11;9.60;;;4.97;;
74799;SDS011;63326;45.088;7.658;2023-03-01T16:50:38;8.85;;;4.85;;
74799;SDS011;63326;45.088;7.658;2023-03-01T16:53:05;5.75;;;3.75;;
74799;SDS011;63326;45.088;7.658;2023-03-01T16:55:31;7.95;;;5.15;;
74799;SDS011;63326;45.088;7.658;2023-03-01T16:57:59;8.85;;;5.35;;
74799;SDS011;63326;45.088;7.658;2023-03-01T17:00:26;3.42;;;2.38;;
74799;SDS011;63326;45.088;7.658;2023-03-01T17:02:54;7.60;;;4.93;;
74799;SDS011;63326;45.088;7.658;2023-03-01T17:05:20;6.95;;;4.35;;
74799;SDS011;63326;45.088;7.658;2023-03-01T17:07:49;11.52;;;4.28;;
74799;SDS011;63326;45.088;7.658;2023-03-01T17:10:16;8.05;;;4.75;;
74799;SDS011;63326;45.088;7.658;2023-03-01T17:12:43;7.65;;;3.58;;
74799;SDS011;63326;45.088;7.658;2023-03-01T17:15:10;4.90;;;3.28;;
74799;SDS011;63326;45.088;7.658;2023-03-01T17:17:38;7.13;;;4.20;;